createdAt,value
2022-09-09T00:00:15.692Z,996.94
2022-09-09T00:01:15.671Z,996.91
2022-09-09T00:02:15.745Z,996.94
2022-09-09T00:03:15.783Z,996.95
2022-09-09T00:04:15.647Z,996.92
2022-09-09T00:05:15.621Z,996.93
2022-09-09T00:06:15.614Z,996.98
2022-09-09T00:07:15.599Z,996.99
2022-09-09T00:08:15.601Z,996.97
2022-09-09T00:09:15.570Z,996.98
2022-09-09T00:10:15.571Z,996.96
2022-09-09T00:11:15.539Z,996.98
2022-09-09T00:12:15.538Z,996.96
2022-09-09T00:13:15.582Z,996.98
2022-09-09T00:14:15.505Z,996.93
2022-09-09T00:15:15.502Z,996.98
2022-09-09T00:16:15.516Z,996.98
2022-09-09T00:17:15.470Z,996.93
2022-09-09T00:18:15.466Z,996.99
2022-09-09T00:19:16.250Z,996.94
2022-09-09T00:20:15.424Z,996.98
2022-09-09T00:21:15.409Z,996.97
2022-09-09T00:22:15.405Z,997.00
2022-09-09T00:23:15.389Z,996.97
2022-09-09T00:24:15.369Z,996.93
2022-09-09T00:25:15.353Z,996.95
2022-09-09T00:26:15.349Z,996.94
2022-09-09T00:27:15.328Z,996.97
2022-09-09T00:28:15.332Z,996.94
2022-09-09T00:29:15.298Z,996.93
2022-09-09T00:30:15.307Z,996.94
2022-09-09T00:31:15.318Z,996.91
2022-09-09T00:32:15.273Z,996.83
2022-09-09T00:33:15.260Z,996.89
2022-09-09T00:34:15.248Z,996.88
2022-09-09T00:35:15.227Z,996.90
2022-09-09T00:36:15.217Z,996.85
2022-09-09T00:37:15.188Z,996.88
2022-09-09T00:38:15.202Z,996.90
2022-09-09T00:39:15.169Z,996.85
2022-09-09T00:40:15.203Z,996.85
2022-09-09T00:41:15.140Z,996.87
2022-09-09T00:42:15.135Z,996.89
2022-09-09T00:43:15.129Z,996.89
2022-09-09T00:44:15.110Z,996.88
2022-09-09T00:45:15.077Z,996.88
2022-09-09T00:46:15.283Z,996.86
2022-09-09T00:47:15.057Z,996.88
2022-09-09T00:48:15.060Z,996.87
2022-09-09T00:49:15.031Z,996.83
2022-09-09T00:50:15.019Z,996.85
2022-09-09T00:51:15.005Z,996.81
2022-09-09T00:52:15.011Z,996.87
2022-09-09T00:53:14.977Z,996.79
2022-09-09T00:54:14.971Z,996.83
2022-09-09T00:55:14.949Z,996.81
2022-09-09T00:56:14.949Z,996.80
2022-09-09T00:57:14.939Z,996.79
2022-09-09T00:58:14.907Z,996.81
2022-09-09T00:59:14.898Z,996.83
2022-09-09T01:00:14.888Z,996.78
2022-09-09T01:01:14.919Z,996.78
2022-09-09T01:02:14.931Z,996.77
2022-09-09T01:03:14.844Z,996.80
2022-09-09T01:04:14.837Z,996.75
2022-09-09T01:05:14.818Z,996.76
2022-09-09T01:06:14.810Z,996.77
2022-09-09T01:07:14.808Z,996.78
2022-09-09T01:08:14.778Z,996.81
2022-09-09T01:09:14.765Z,996.84
2022-09-09T01:10:14.757Z,996.81
2022-09-09T01:11:14.739Z,996.86
2022-09-09T01:12:14.736Z,996.84
2022-09-09T01:13:14.717Z,996.89
2022-09-09T01:14:14.699Z,996.94
2022-09-09T01:15:14.680Z,996.87
2022-09-09T01:16:14.703Z,996.92
2022-09-09T01:17:14.678Z,996.93
2022-09-09T01:18:14.653Z,996.98
2022-09-09T01:19:14.629Z,996.92
2022-09-09T01:20:14.619Z,996.95
2022-09-09T01:21:14.596Z,996.92
2022-09-09T01:22:14.611Z,996.88
2022-09-09T01:23:14.578Z,996.89
2022-09-09T01:24:14.568Z,996.92
2022-09-09T01:25:14.560Z,996.91
2022-09-09T01:26:14.539Z,996.92
2022-09-09T01:27:14.538Z,996.94
2022-09-09T01:28:14.517Z,996.90
2022-09-09T01:29:14.505Z,996.89
2022-09-09T01:30:14.484Z,996.88
2022-09-09T01:31:14.491Z,996.84
2022-09-09T01:32:14.500Z,996.85
2022-09-09T01:33:14.451Z,996.83
2022-09-09T01:34:14.439Z,996.83
2022-09-09T01:35:14.415Z,996.86
2022-09-09T01:36:14.410Z,996.85
2022-09-09T01:37:14.408Z,996.88
2022-09-09T01:38:14.388Z,996.85
2022-09-09T01:39:14.368Z,996.81
2022-09-09T01:40:14.464Z,996.81
2022-09-09T01:41:14.344Z,996.76
2022-09-09T01:42:14.337Z,996.76
2022-09-09T01:43:14.308Z,996.77
2022-09-09T01:44:14.303Z,996.71
2022-09-09T01:45:14.287Z,996.70
2022-09-09T01:46:14.307Z,996.66
2022-09-09T01:47:14.269Z,996.66
2022-09-09T01:48:14.249Z,996.68
2022-09-09T01:49:14.228Z,996.64
2022-09-09T01:50:14.220Z,996.68
2022-09-09T01:51:14.207Z,996.70
2022-09-09T01:52:14.206Z,996.73
2022-09-09T01:53:14.175Z,996.72
2022-09-09T01:54:14.177Z,996.72
2022-09-09T01:55:14.147Z,996.72
2022-09-09T01:56:14.146Z,996.70
2022-09-09T01:57:14.128Z,996.70
2022-09-09T01:58:14.116Z,996.74
2022-09-09T01:59:14.106Z,996.76
2022-09-09T02:00:14.085Z,996.76
2022-09-09T02:01:14.137Z,996.74
2022-09-09T02:02:14.108Z,996.74
2022-09-09T02:03:14.046Z,996.73
2022-09-09T02:04:14.044Z,996.71
2022-09-09T02:05:14.017Z,996.73
2022-09-09T02:06:14.014Z,996.72
2022-09-09T02:07:14.024Z,996.70
2022-09-09T02:08:13.981Z,996.71
2022-09-09T02:09:13.963Z,996.75
2022-09-09T02:10:13.975Z,996.72
2022-09-09T02:11:13.945Z,996.77
2022-09-09T02:12:13.945Z,996.78
2022-09-09T02:13:13.918Z,996.77
2022-09-09T02:14:13.915Z,996.76
2022-09-09T02:15:13.875Z,996.81
2022-09-09T02:16:13.947Z,996.78
2022-09-09T02:17:13.864Z,996.82
2022-09-09T02:18:13.843Z,996.81
2022-09-09T02:19:13.824Z,996.80
2022-09-09T02:20:13.836Z,996.83
2022-09-09T02:21:13.810Z,996.83
2022-09-09T02:22:13.804Z,996.85
2022-09-09T02:23:13.863Z,996.82
2022-09-09T02:24:13.778Z,996.84
2022-09-09T02:25:13.756Z,996.90
2022-09-09T02:26:13.757Z,996.82
2022-09-09T02:27:13.754Z,996.85
2022-09-09T02:28:13.718Z,996.86
2022-09-09T02:29:13.700Z,996.86
2022-09-09T02:30:13.691Z,996.88
2022-09-09T02:31:13.719Z,996.88
2022-09-09T02:32:13.685Z,996.87
2022-09-09T02:33:13.640Z,996.89
2022-09-09T02:34:13.634Z,996.86
2022-09-09T02:35:13.623Z,996.80
2022-09-09T02:36:13.624Z,996.82
2022-09-09T02:37:13.592Z,996.84
2022-09-09T02:38:13.585Z,996.83
2022-09-09T02:39:13.563Z,996.90
2022-09-09T02:40:13.609Z,996.90
2022-09-09T02:41:13.554Z,996.86
2022-09-09T02:42:13.522Z,996.90
2022-09-09T02:43:13.515Z,996.86
2022-09-09T02:44:13.501Z,996.87
2022-09-09T02:45:13.501Z,996.92
2022-09-09T02:46:13.587Z,996.88
2022-09-09T02:47:13.463Z,996.85
2022-09-09T02:48:13.454Z,996.89
2022-09-09T02:49:13.435Z,996.83
2022-09-09T02:50:13.436Z,996.82
2022-09-09T02:51:13.422Z,996.85
2022-09-09T02:52:13.396Z,996.83
2022-09-09T02:53:13.382Z,996.80
2022-09-09T02:54:13.373Z,996.80
2022-09-09T02:55:13.352Z,996.83
2022-09-09T02:56:13.362Z,996.80
2022-09-09T02:57:13.334Z,996.83
2022-09-09T02:58:13.312Z,996.88
2022-09-09T02:59:13.303Z,996.88
2022-09-09T03:00:13.282Z,996.89
2022-09-09T03:01:13.517Z,996.87
2022-09-09T03:02:13.327Z,996.87
2022-09-09T03:03:13.243Z,996.84
2022-09-09T03:04:13.240Z,996.82
2022-09-09T03:05:13.224Z,996.84
2022-09-09T03:06:13.212Z,996.79
2022-09-09T03:07:13.193Z,996.81
2022-09-09T03:08:13.185Z,996.80
2022-09-09T03:09:13.164Z,996.84
2022-09-09T03:10:13.162Z,996.82
2022-09-09T03:11:13.150Z,996.80
2022-09-09T03:12:13.134Z,996.79
2022-09-09T03:13:13.113Z,996.80
2022-09-09T03:14:13.103Z,996.80
2022-09-09T03:15:13.091Z,996.82
2022-09-09T03:16:13.140Z,996.81
2022-09-09T03:17:13.060Z,996.80
2022-09-09T03:18:13.053Z,996.83
2022-09-09T03:19:13.042Z,996.88
2022-09-09T03:20:13.020Z,996.88
2022-09-09T03:21:13.051Z,996.88
2022-09-09T03:22:12.993Z,996.84
2022-09-09T03:23:15.821Z,996.85
2022-09-09T03:24:12.973Z,996.90
2022-09-09T03:25:12.951Z,996.90
2022-09-09T03:26:12.951Z,996.88
2022-09-09T03:27:12.920Z,996.82
2022-09-09T03:28:12.911Z,996.86
2022-09-09T03:29:12.900Z,996.84
2022-09-09T03:30:12.893Z,996.86
2022-09-09T03:31:13.000Z,996.85
2022-09-09T03:32:12.860Z,996.83
2022-09-09T03:33:12.842Z,996.83
2022-09-09T03:34:12.843Z,996.79
2022-09-09T03:35:12.827Z,996.81
2022-09-09T03:36:12.832Z,996.76
2022-09-09T03:37:12.792Z,996.80
2022-09-09T03:38:12.787Z,996.81
2022-09-09T03:39:12.759Z,996.77
2022-09-09T03:40:12.830Z,996.77
2022-09-09T03:41:12.763Z,996.75
2022-09-09T03:42:12.730Z,996.81
2022-09-09T03:43:12.710Z,996.77
2022-09-09T03:44:12.699Z,996.76
2022-09-09T03:45:12.679Z,996.79
2022-09-09T03:46:12.755Z,996.77
2022-09-09T03:47:12.667Z,996.81
2022-09-09T03:48:12.651Z,996.77
2022-09-09T03:49:12.629Z,996.76
2022-09-09T03:50:12.629Z,996.70
2022-09-09T03:51:12.625Z,996.65
2022-09-09T03:52:12.598Z,996.67
2022-09-09T03:53:12.580Z,996.72
2022-09-09T03:54:12.571Z,996.68
2022-09-09T03:55:12.562Z,996.71
2022-09-09T03:56:12.551Z,996.75
2022-09-09T03:57:12.531Z,996.75
2022-09-09T03:58:12.517Z,996.75
2022-09-09T03:59:12.510Z,996.72
2022-09-09T04:00:12.499Z,996.71
2022-09-09T04:01:12.553Z,996.72
2022-09-09T04:02:12.522Z,996.72
2022-09-09T04:03:12.449Z,996.72
2022-09-09T04:04:12.430Z,996.76
2022-09-09T04:05:12.431Z,996.72
2022-09-09T04:06:12.407Z,996.73
2022-09-09T04:07:12.407Z,996.77
2022-09-09T04:08:12.380Z,996.79
2022-09-09T04:09:12.370Z,996.77
2022-09-09T04:10:12.379Z,996.74
2022-09-09T04:11:12.338Z,996.78
2022-09-09T04:12:12.336Z,996.78
2022-09-09T04:13:12.321Z,996.80
2022-09-09T04:14:12.307Z,996.84
2022-09-09T04:15:12.300Z,996.82
2022-09-09T04:16:12.296Z,996.87
2022-09-09T04:17:12.257Z,996.85
2022-09-09T04:18:12.249Z,996.89
2022-09-09T04:19:12.240Z,996.90
2022-09-09T04:20:12.236Z,996.89
2022-09-09T04:21:12.219Z,996.87
2022-09-09T04:22:12.199Z,996.81
2022-09-09T04:23:12.188Z,996.83
2022-09-09T04:24:12.170Z,996.78
2022-09-09T04:25:12.173Z,996.76
2022-09-09T04:26:12.148Z,996.80
2022-09-09T04:27:12.130Z,996.76
2022-09-09T04:28:12.139Z,996.75
2022-09-09T04:29:12.107Z,996.72
2022-09-09T04:30:12.128Z,996.72
2022-09-09T04:31:12.153Z,996.71
2022-09-09T04:32:12.065Z,996.73
2022-09-09T04:33:12.049Z,996.70
2022-09-09T04:34:12.035Z,996.68
2022-09-09T04:35:12.118Z,996.73
2022-09-09T04:36:12.007Z,996.71
2022-09-09T04:37:12.000Z,996.74
2022-09-09T04:38:11.987Z,996.75
2022-09-09T04:39:11.985Z,996.70
2022-09-09T04:40:12.019Z,996.69
2022-09-09T04:41:11.937Z,996.69
2022-09-09T04:42:11.942Z,996.68
2022-09-09T04:43:14.449Z,996.70
2022-09-09T04:44:11.895Z,996.76
2022-09-09T04:45:11.907Z,996.73
2022-09-09T04:46:11.935Z,996.73
2022-09-09T04:47:11.878Z,996.71
2022-09-09T04:48:11.865Z,996.76
2022-09-09T04:49:15.087Z,996.73
2022-09-09T04:50:11.834Z,996.78
2022-09-09T04:51:11.808Z,996.78
2022-09-09T04:52:11.793Z,996.82
2022-09-09T04:53:11.776Z,996.84
2022-09-09T04:54:11.771Z,996.82
2022-09-09T04:55:11.799Z,996.82
2022-09-09T04:56:11.736Z,996.85
2022-09-09T04:57:15.239Z,996.84
2022-09-09T04:58:12.720Z,996.84
2022-09-09T04:59:11.705Z,996.85
2022-09-09T05:00:12.027Z,996.87
2022-09-09T05:01:11.694Z,996.92
2022-09-09T05:02:11.736Z,996.92
2022-09-09T05:03:11.654Z,996.93
2022-09-09T05:04:11.634Z,996.95
2022-09-09T05:05:11.639Z,996.95
2022-09-09T05:06:11.603Z,997.00
2022-09-09T05:07:11.623Z,996.93
2022-09-09T05:08:11.574Z,997.00
2022-09-09T05:09:11.588Z,997.00
2022-09-09T05:10:11.560Z,997.02
2022-09-09T05:11:11.543Z,997.06
2022-09-09T05:12:11.533Z,997.05
2022-09-09T05:13:11.514Z,997.07
2022-09-09T05:14:11.513Z,997.04
2022-09-09T05:15:11.498Z,997.05
2022-09-09T05:16:11.505Z,997.09
2022-09-09T05:17:11.474Z,997.11
2022-09-09T05:18:11.445Z,997.08
2022-09-09T05:19:11.471Z,997.08
2022-09-09T05:20:15.679Z,997.08
2022-09-09T05:21:12.403Z,997.10
2022-09-09T05:22:11.392Z,997.05
2022-09-09T05:23:11.382Z,997.06
2022-09-09T05:24:11.394Z,997.10
2022-09-09T05:25:11.363Z,997.06
2022-09-09T05:26:13.435Z,997.05
2022-09-09T05:27:12.323Z,997.09
2022-09-09T05:28:11.312Z,997.11
2022-09-09T05:29:11.323Z,997.14
2022-09-09T05:30:11.352Z,997.11
2022-09-09T05:31:11.306Z,997.15
2022-09-09T05:32:15.230Z,997.12
2022-09-09T05:33:11.254Z,997.14
2022-09-09T05:34:11.252Z,997.12
2022-09-09T05:35:11.228Z,997.08
2022-09-09T05:36:11.211Z,997.02
2022-09-09T05:37:11.202Z,996.96
2022-09-09T05:38:11.254Z,996.95
2022-09-09T05:39:11.181Z,996.95
2022-09-09T05:40:11.226Z,996.91
2022-09-09T05:41:11.151Z,996.98
2022-09-09T05:42:11.129Z,996.94
2022-09-09T05:43:11.121Z,996.91
2022-09-09T05:44:11.113Z,996.90
2022-09-09T05:45:11.102Z,996.99
2022-09-09T05:46:11.080Z,996.99
2022-09-09T05:47:11.124Z,996.94
2022-09-09T05:48:11.052Z,997.01
2022-09-09T05:49:11.052Z,997.01
2022-09-09T05:50:11.022Z,996.99
2022-09-09T05:51:11.013Z,996.97
2022-09-09T05:52:10.991Z,996.96
2022-09-09T05:53:10.993Z,997.05
2022-09-09T05:54:10.975Z,997.04
2022-09-09T05:55:10.950Z,997.04
2022-09-09T05:56:10.942Z,997.05
2022-09-09T05:57:10.931Z,997.02
2022-09-09T05:58:10.909Z,997.04
2022-09-09T05:59:10.921Z,997.06
2022-09-09T06:00:10.889Z,997.01
2022-09-09T06:01:10.891Z,997.04
2022-09-09T06:02:10.930Z,997.02
2022-09-09T06:03:10.957Z,997.01
2022-09-09T06:04:10.843Z,997.08
2022-09-09T06:05:10.833Z,997.07
2022-09-09T06:06:10.802Z,997.07
2022-09-09T06:07:10.804Z,997.04
2022-09-09T06:08:10.781Z,997.01
2022-09-09T06:09:10.834Z,997.07
2022-09-09T06:10:10.751Z,997.06
2022-09-09T06:11:10.739Z,997.03
2022-09-09T06:12:10.721Z,997.03
2022-09-09T06:13:10.719Z,997.06
2022-09-09T06:14:10.712Z,997.09
2022-09-09T06:15:10.690Z,997.10
2022-09-09T06:16:10.734Z,997.09
2022-09-09T06:17:10.661Z,997.12
2022-09-09T06:18:10.652Z,997.10
2022-09-09T06:19:10.649Z,997.11
2022-09-09T06:20:10.619Z,997.08
2022-09-09T06:21:10.609Z,997.10
2022-09-09T06:22:10.598Z,997.06
2022-09-09T06:23:10.579Z,997.08
2022-09-09T06:24:10.581Z,997.06
2022-09-09T06:25:10.549Z,997.07
2022-09-09T06:26:10.549Z,997.09
2022-09-09T06:27:10.536Z,997.06
2022-09-09T06:28:10.509Z,997.09
2022-09-09T06:29:10.534Z,997.05
2022-09-09T06:30:10.490Z,997.07
2022-09-09T06:31:10.496Z,997.10
2022-09-09T06:32:10.460Z,997.11
2022-09-09T06:33:10.449Z,997.11
2022-09-09T06:34:10.442Z,997.13
2022-09-09T06:35:10.432Z,997.10
2022-09-09T06:36:10.399Z,997.12
2022-09-09T06:37:10.397Z,997.18
2022-09-09T06:38:10.379Z,997.16
2022-09-09T06:39:14.510Z,997.15
2022-09-09T06:40:10.391Z,997.18
2022-09-09T06:41:10.338Z,997.14
2022-09-09T06:42:10.345Z,997.15
2022-09-09T06:43:10.328Z,997.15
2022-09-09T06:44:10.315Z,997.14
2022-09-09T06:45:10.298Z,997.16
2022-09-09T06:46:10.306Z,997.11
2022-09-09T06:47:10.263Z,997.20
2022-09-09T06:48:10.237Z,997.18
2022-09-09T06:49:10.248Z,997.15
2022-09-09T06:50:10.229Z,997.16
2022-09-09T06:51:10.209Z,997.13
2022-09-09T06:52:10.424Z,997.10
2022-09-09T06:53:10.177Z,997.09
2022-09-09T06:54:10.178Z,997.13
2022-09-09T06:55:10.156Z,997.10
2022-09-09T06:56:11.327Z,997.06
2022-09-09T06:57:33.675Z,997.05
2022-09-09T06:58:11.107Z,997.06
2022-09-09T06:59:10.128Z,997.11
2022-09-09T07:00:10.087Z,997.03
2022-09-09T07:01:10.202Z,997.07
2022-09-09T07:02:10.121Z,997.05
2022-09-09T07:03:10.055Z,996.98
2022-09-09T07:04:10.099Z,997.01
2022-09-09T07:05:10.027Z,997.03
2022-09-09T07:06:10.003Z,997.07
2022-09-09T07:07:09.997Z,997.06
2022-09-09T07:08:09.974Z,997.08
2022-09-09T07:09:09.979Z,997.03
2022-09-09T07:10:09.948Z,997.03
2022-09-09T07:11:12.476Z,997.06
2022-09-09T07:12:09.916Z,997.04
2022-09-09T07:13:09.923Z,997.03
2022-09-09T07:14:09.907Z,997.00
2022-09-09T07:15:09.887Z,996.97
2022-09-09T07:16:09.885Z,997.01
2022-09-09T07:17:09.867Z,996.99
2022-09-09T07:18:09.845Z,996.97
2022-09-09T07:19:09.846Z,996.93
2022-09-09T07:20:09.817Z,996.94
2022-09-09T07:21:09.805Z,996.99
2022-09-09T07:22:09.795Z,997.03
2022-09-09T07:23:09.787Z,997.06
2022-09-09T07:24:09.770Z,997.01
2022-09-09T07:25:09.756Z,997.06
2022-09-09T07:26:09.741Z,997.09
2022-09-09T07:27:09.728Z,997.04
2022-09-09T07:28:09.743Z,997.03
2022-09-09T07:29:09.697Z,996.99
2022-09-09T07:30:09.678Z,996.99
2022-09-09T07:31:09.688Z,996.91
2022-09-09T07:32:09.654Z,996.93
2022-09-09T07:33:09.655Z,996.96
2022-09-09T07:34:09.625Z,996.95
2022-09-09T07:35:09.617Z,996.96
2022-09-09T07:36:09.617Z,997.03
2022-09-09T07:37:09.592Z,997.07
2022-09-09T07:38:09.586Z,997.09
2022-09-09T07:39:09.564Z,997.12
2022-09-09T07:40:09.583Z,997.13
2022-09-09T07:41:09.536Z,997.10
2022-09-09T07:42:09.527Z,997.13
2022-09-09T07:43:09.525Z,997.12
2022-09-09T07:44:09.495Z,997.06
2022-09-09T07:45:09.487Z,997.09
2022-09-09T07:46:09.503Z,997.07
2022-09-09T07:47:09.458Z,997.04
2022-09-09T07:48:09.445Z,997.04
2022-09-09T07:49:09.427Z,997.02
2022-09-09T07:50:09.418Z,997.02
2022-09-09T07:51:09.404Z,997.06
2022-09-09T07:52:09.393Z,997.06
2022-09-09T07:53:09.386Z,997.13
2022-09-09T07:54:09.375Z,997.11
2022-09-09T07:55:09.346Z,997.13
2022-09-09T07:56:09.334Z,997.11
2022-09-09T07:57:09.316Z,997.20
2022-09-09T07:58:09.337Z,997.15
2022-09-09T07:59:09.295Z,997.18
2022-09-09T08:00:09.276Z,997.19
2022-09-09T08:01:09.265Z,997.21
2022-09-09T08:02:09.247Z,997.18
2022-09-09T08:03:09.298Z,997.19
2022-09-09T08:04:09.223Z,997.14
2022-09-09T08:05:09.216Z,997.19
2022-09-09T08:06:09.197Z,997.15
2022-09-09T08:07:09.193Z,997.15
2022-09-09T08:08:09.185Z,997.13
2022-09-09T08:09:09.157Z,997.17
2022-09-09T08:10:09.145Z,997.15
2022-09-09T08:11:09.134Z,997.20
2022-09-09T08:12:09.115Z,997.16
2022-09-09T08:13:17.821Z,997.15
2022-09-09T08:14:10.098Z,997.21
2022-09-09T08:15:09.075Z,997.18
2022-09-09T08:16:09.124Z,997.24
2022-09-09T08:17:09.046Z,997.24
2022-09-09T08:18:09.048Z,997.25
2022-09-09T08:19:09.035Z,997.23
2022-09-09T08:20:09.018Z,997.27
2022-09-09T08:21:08.999Z,997.25
2022-09-09T08:22:08.986Z,997.24
2022-09-09T08:23:08.978Z,997.21
2022-09-09T08:24:08.957Z,997.24
2022-09-09T08:25:08.936Z,997.26
2022-09-09T08:26:08.931Z,997.30
2022-09-09T08:27:08.918Z,997.34
2022-09-09T08:28:08.920Z,997.28
2022-09-09T08:29:08.887Z,997.30
2022-09-09T08:30:08.876Z,997.34
2022-09-09T08:31:08.923Z,997.38
2022-09-09T08:32:08.848Z,997.36
2022-09-09T08:33:08.852Z,997.35
2022-09-09T08:34:08.827Z,997.35
2022-09-09T08:35:08.809Z,997.37
2022-09-09T08:36:08.798Z,997.37
2022-09-09T08:37:08.777Z,997.36
2022-09-09T08:38:10.943Z,997.33
2022-09-09T08:39:08.755Z,997.29
2022-09-09T08:40:08.768Z,997.31
2022-09-09T08:41:08.741Z,997.29
2022-09-09T08:42:08.726Z,997.34
2022-09-09T08:43:08.758Z,997.23
2022-09-09T08:44:08.696Z,997.23
2022-09-09T08:45:08.669Z,997.29
2022-09-09T08:46:08.689Z,997.30
2022-09-09T08:47:08.648Z,997.29
2022-09-09T08:48:08.648Z,997.32
2022-09-09T08:49:08.617Z,997.31
2022-09-09T08:50:08.629Z,997.29
2022-09-09T08:51:08.589Z,997.29
2022-09-09T08:52:08.609Z,997.31
2022-09-09T08:53:08.638Z,997.30
2022-09-09T08:54:08.578Z,997.35
2022-09-09T08:55:08.552Z,997.41
2022-09-09T08:56:08.540Z,997.36
2022-09-09T08:57:08.524Z,997.39
2022-09-09T08:58:08.538Z,997.34
2022-09-09T08:59:08.500Z,997.27
2022-09-09T09:00:08.500Z,997.29
2022-09-09T09:01:08.471Z,997.29
2022-09-09T09:02:08.513Z,997.25
2022-09-09T09:03:08.477Z,997.28
2022-09-09T09:04:08.431Z,997.27
2022-09-09T09:05:08.518Z,997.22
2022-09-09T09:06:08.409Z,997.30
2022-09-09T09:07:08.419Z,997.31
2022-09-09T09:08:08.450Z,997.28
2022-09-09T09:09:08.372Z,997.30
2022-09-09T09:10:24.285Z,997.29
2022-09-09T09:11:09.332Z,997.23
2022-09-09T09:12:08.330Z,997.24
2022-09-09T09:13:08.329Z,997.22
2022-09-09T09:14:08.314Z,997.23
2022-09-09T09:15:08.282Z,997.21
2022-09-09T09:16:08.306Z,997.25
2022-09-09T09:17:08.267Z,997.23
2022-09-09T09:18:08.253Z,997.22
2022-09-09T09:19:08.234Z,997.25
2022-09-09T09:20:08.240Z,997.26
2022-09-09T09:21:08.201Z,997.25
2022-09-09T09:22:08.214Z,997.24
2022-09-09T09:23:08.173Z,997.21
2022-09-09T09:24:08.171Z,997.22
2022-09-09T09:25:08.181Z,997.18
2022-09-09T09:26:08.134Z,997.24
2022-09-09T09:27:08.133Z,997.16
2022-09-09T09:28:08.114Z,997.17
2022-09-09T09:29:08.099Z,997.19
2022-09-09T09:30:25.345Z,997.14
2022-09-09T09:31:09.111Z,997.10
2022-09-09T09:32:08.073Z,997.11
2022-09-09T09:33:08.045Z,997.18
2022-09-09T09:34:08.035Z,997.13
2022-09-09T09:35:08.013Z,997.23
2022-09-09T09:36:08.019Z,997.18
2022-09-09T09:37:08.005Z,997.21
2022-09-09T09:40:08.956Z,997.23
2022-09-09T09:41:07.940Z,997.25
2022-09-09T09:42:07.944Z,997.25
2022-09-09T09:43:07.916Z,997.23
2022-09-09T09:44:07.909Z,997.23
2022-09-09T09:45:07.898Z,997.24
2022-09-09T09:46:17.492Z,997.20
2022-09-09T09:47:08.883Z,997.25
2022-09-09T09:48:08.305Z,997.20
2022-09-09T09:49:07.838Z,997.28
2022-09-09T09:50:07.835Z,997.28
2022-09-09T09:51:07.806Z,997.29
2022-09-09T09:52:07.809Z,997.28
2022-09-09T09:53:07.784Z,997.30
2022-09-09T09:54:07.774Z,997.32
2022-09-09T09:55:08.106Z,997.36
2022-09-09T09:56:07.747Z,997.32
2022-09-09T09:57:07.738Z,997.37
2022-09-09T09:58:07.734Z,997.33
2022-09-09T09:59:17.822Z,997.32
2022-09-09T10:00:08.714Z,997.27
2022-09-09T10:01:07.698Z,997.33
2022-09-09T10:02:07.678Z,997.31
2022-09-09T10:03:07.668Z,997.30
2022-09-09T10:04:07.639Z,997.25
2022-09-09T10:05:07.669Z,997.26
2022-09-09T10:06:07.632Z,997.29
2022-09-09T10:07:07.619Z,997.25
2022-09-09T10:08:07.598Z,997.20
2022-09-09T10:09:07.579Z,997.25
2022-09-09T10:10:07.566Z,997.25
2022-09-09T10:11:07.601Z,997.22
2022-09-09T10:12:07.551Z,997.21
2022-09-09T10:13:07.549Z,997.15
2022-09-09T10:14:07.511Z,997.18
2022-09-09T10:15:07.489Z,997.16
2022-09-09T10:16:07.533Z,997.19
2022-09-09T10:17:07.472Z,997.22
2022-09-09T10:18:07.493Z,997.17
2022-09-09T10:19:07.467Z,997.19
2022-09-09T10:20:07.450Z,997.15
2022-09-09T10:21:07.424Z,997.15
2022-09-09T10:22:07.413Z,997.06
2022-09-09T10:23:07.401Z,997.12
2022-09-09T10:24:07.415Z,997.09
2022-09-09T10:25:07.363Z,997.02
2022-09-09T10:26:07.361Z,997.07
2022-09-09T10:27:07.342Z,997.06
2022-09-09T10:28:07.353Z,996.99
2022-09-09T10:29:07.318Z,997.04
2022-09-09T10:30:07.302Z,997.07
2022-09-09T10:31:07.390Z,997.04
2022-09-09T10:32:07.285Z,997.00
2022-09-09T10:33:07.338Z,996.99
2022-09-09T10:34:07.252Z,996.96
2022-09-09T10:35:07.241Z,996.94
2022-09-09T10:36:07.232Z,996.89
2022-09-09T10:37:07.222Z,996.92
2022-09-09T10:38:07.204Z,996.89
2022-09-09T10:39:07.183Z,996.87
2022-09-09T10:40:07.212Z,996.86
2022-09-09T10:41:07.153Z,996.85
2022-09-09T10:42:07.144Z,996.91
2022-09-09T10:43:07.150Z,996.87
2022-09-09T10:44:07.130Z,996.92
2022-09-09T10:45:07.123Z,996.90
2022-09-09T10:46:07.178Z,996.89
2022-09-09T10:47:08.220Z,996.92
2022-09-09T10:48:07.089Z,996.89
2022-09-09T10:49:07.054Z,996.91
2022-09-09T10:50:07.054Z,996.89
2022-09-09T10:51:07.264Z,996.87
2022-09-09T10:52:07.037Z,996.91
2022-09-09T10:53:06.997Z,996.92
2022-09-09T10:54:07.000Z,996.84
2022-09-09T10:55:06.974Z,996.84
2022-09-09T10:56:06.964Z,996.82
2022-09-09T10:57:06.977Z,996.77
2022-09-09T10:58:06.940Z,996.72
2022-09-09T10:59:06.915Z,996.72
2022-09-09T11:00:06.915Z,996.75
2022-09-09T11:01:07.015Z,996.73
2022-09-09T11:02:06.909Z,996.66
2022-09-09T11:03:06.879Z,996.73
2022-09-09T11:04:06.916Z,996.77
2022-09-09T11:05:06.844Z,996.74
2022-09-09T11:06:06.856Z,996.74
2022-09-09T11:07:11.072Z,996.68
2022-09-09T11:08:07.811Z,996.72
2022-09-09T11:09:06.796Z,996.69
2022-09-09T11:10:06.785Z,996.68
2022-09-09T11:11:06.758Z,996.69
2022-09-09T11:12:06.768Z,996.64
2022-09-09T11:13:06.746Z,996.71
2022-09-09T11:14:07.520Z,996.72
2022-09-09T11:15:06.711Z,996.69
2022-09-09T11:16:06.698Z,996.69
2022-09-09T11:17:06.722Z,996.67
2022-09-09T11:18:06.728Z,996.63
2022-09-09T11:19:06.689Z,996.69
2022-09-09T11:20:06.650Z,996.66
2022-09-09T11:21:06.649Z,996.69
2022-09-09T11:22:06.662Z,996.60
2022-09-09T11:23:06.662Z,996.58
2022-09-09T11:24:06.598Z,996.60
2022-09-09T11:25:06.594Z,996.65
2022-09-09T11:26:06.570Z,996.65
2022-09-09T11:27:06.573Z,996.61
2022-09-09T11:28:06.543Z,996.68
2022-09-09T11:29:06.531Z,996.59
2022-09-09T11:30:06.604Z,996.57
2022-09-09T11:31:06.554Z,996.53
2022-09-09T11:32:06.509Z,996.55
2022-09-09T11:33:06.494Z,996.54
2022-09-09T11:34:06.464Z,996.46
2022-09-09T11:35:06.450Z,996.52
2022-09-09T11:36:07.972Z,996.49
2022-09-09T11:37:06.431Z,996.51
2022-09-09T11:38:06.435Z,996.49
2022-09-09T11:39:06.426Z,996.44
2022-09-09T11:40:06.487Z,996.52
2022-09-09T11:41:06.396Z,996.50
2022-09-09T11:42:06.394Z,996.51
2022-09-09T11:43:06.351Z,996.53
2022-09-09T11:44:06.345Z,996.50
2022-09-09T11:45:06.347Z,996.50
2022-09-09T11:46:06.429Z,996.48
2022-09-09T11:47:06.311Z,996.51
2022-09-09T11:48:06.282Z,996.50
2022-09-09T11:49:06.271Z,996.50
2022-09-09T11:50:06.304Z,996.56
2022-09-09T11:51:06.244Z,996.52
2022-09-09T11:52:06.244Z,996.49
2022-09-09T11:53:06.215Z,996.51
2022-09-09T11:54:06.210Z,996.51
2022-09-09T11:55:06.193Z,996.45
2022-09-09T11:56:06.184Z,996.51
2022-09-09T11:57:06.222Z,996.50
2022-09-09T11:58:06.169Z,996.52
2022-09-09T11:59:06.159Z,996.45
2022-09-09T12:00:06.199Z,996.43
2022-09-09T12:01:06.121Z,996.47
2022-09-09T12:02:06.161Z,996.48
2022-09-09T12:03:06.095Z,996.53
2022-09-09T12:04:06.099Z,996.48
2022-09-09T12:05:06.126Z,996.48
2022-09-09T12:06:06.101Z,996.51
2022-09-09T12:07:06.044Z,996.52
2022-09-09T12:08:06.028Z,996.53
2022-09-09T12:09:06.007Z,996.48
2022-09-09T12:10:06.048Z,996.54
2022-09-09T12:11:05.984Z,996.52
2022-09-09T12:12:05.998Z,996.52
2022-09-09T12:13:05.956Z,996.56
2022-09-09T12:14:05.955Z,996.50
2022-09-09T12:15:05.925Z,996.51
2022-09-09T12:16:05.947Z,996.50
2022-09-09T12:17:05.906Z,996.45
2022-09-09T12:18:05.898Z,996.46
2022-09-09T12:19:05.884Z,996.44
2022-09-09T12:20:05.877Z,996.45
2022-09-09T12:21:05.870Z,996.41
2022-09-09T12:22:05.846Z,996.38
2022-09-09T12:23:05.832Z,996.35
2022-09-09T12:24:05.817Z,996.40
2022-09-09T12:25:05.800Z,996.48
2022-09-09T12:26:05.809Z,996.44
2022-09-09T12:27:05.781Z,996.41
2022-09-09T12:28:05.766Z,996.47
2022-09-09T12:29:05.755Z,996.47
2022-09-09T12:30:05.731Z,996.45